9°C Temp
7°C Dewpoint
87% Humidity
Temperature
14 KM/H
9 MPH
8 KTS
190°
Due South

Wind Speed
Clear
Conditions
Pressure 1018 (hPa) - 30.06 (in)
Visibility 6.2 (mi) - 10.0 (km)

Current Conditions
EGOS
Location RAF Shawbury 6km (3.2mi)
Metar :EGOS 142150Z 19008KT CAVOK 09/07 Q1018 BLU NOSIG
Wed 14th November 21:50 pm

Airport
  Metar Aviation API Data Provided by https://www.checkwx.com/ PHP scripts by weather34.com ©2018